createdAt,value
2022-10-20T00:02:03.097Z,7.22
2022-10-20T00:04:30.438Z,8.73
2022-10-20T00:06:57.753Z,7.10
2022-10-20T00:09:25.103Z,7.35
2022-10-20T00:11:52.448Z,7.95
2022-10-20T00:14:19.791Z,7.40
2022-10-20T00:16:47.131Z,7.45
2022-10-20T00:19:14.523Z,7.38
2022-10-20T00:21:41.880Z,7.60
2022-10-20T00:24:09.216Z,7.60
2022-10-20T00:26:36.649Z,6.65
2022-10-20T00:29:04.646Z,7.40
2022-10-20T00:31:32.677Z,7.63
2022-10-20T00:34:00.064Z,7.43
2022-10-20T00:36:27.410Z,7.30
2022-10-20T00:38:58.120Z,7.90
2022-10-20T00:41:25.483Z,7.10
2022-10-20T00:44:03.647Z,6.93
2022-10-20T00:46:33.987Z,6.68
2022-10-20T00:51:30.738Z,6.25
2022-10-20T00:54:04.791Z,7.35
2022-10-20T00:56:32.608Z,6.50
2022-10-20T00:59:01.555Z,6.65
2022-10-20T01:01:28.951Z,6.28
2022-10-20T01:03:56.398Z,6.82
2022-10-20T01:06:24.220Z,6.18
2022-10-20T01:08:53.647Z,5.63
2022-10-20T01:11:48.422Z,6.30
2022-10-20T01:14:34.454Z,6.00
2022-10-20T01:17:07.139Z,5.43
2022-10-20T01:20:13.018Z,5.57
2022-10-20T01:22:59.198Z,5.72
2022-10-20T01:25:45.066Z,5.60
2022-10-20T01:28:21.370Z,5.45
2022-10-20T01:30:55.926Z,4.15
2022-10-20T01:33:37.662Z,4.40
2022-10-20T01:36:23.452Z,4.75
2022-10-20T01:39:05.608Z,5.18
2022-10-20T01:41:42.995Z,4.45
2022-10-20T01:44:13.497Z,3.83
2022-10-20T01:46:41.614Z,4.47
2022-10-20T01:49:09.813Z,3.85
2022-10-20T01:51:37.228Z,3.90
2022-10-20T01:54:04.624Z,4.18
2022-10-20T01:56:50.532Z,3.65
2022-10-20T01:59:37.962Z,3.58
2022-10-20T02:02:20.303Z,3.85
2022-10-20T02:04:54.803Z,3.95
2022-10-20T02:07:28.062Z,3.60
2022-10-20T02:10:00.765Z,3.00
2022-10-20T02:12:30.255Z,4.15
2022-10-20T02:14:58.166Z,3.60
2022-10-20T02:17:25.721Z,3.75
2022-10-20T02:19:54.096Z,4.00
2022-10-20T02:22:22.031Z,4.00
2022-10-20T02:24:49.785Z,3.53
2022-10-20T02:27:17.129Z,3.50
2022-10-20T02:29:50.448Z,3.60
2022-10-20T02:32:18.421Z,2.97
2022-10-20T02:34:45.823Z,3.92
2022-10-20T02:37:13.221Z,4.20
2022-10-20T02:39:40.767Z,4.18
2022-10-20T02:42:08.147Z,4.43
2022-10-20T02:44:35.553Z,4.57
2022-10-20T02:47:02.867Z,4.47
2022-10-20T02:49:30.231Z,4.93
2022-10-20T02:51:57.657Z,4.20
2022-10-20T02:54:25.018Z,4.93
2022-10-20T02:56:52.397Z,4.43
2022-10-20T02:59:19.725Z,4.57
2022-10-20T03:01:47.216Z,5.25
2022-10-20T03:04:15.077Z,4.10
2022-10-20T03:06:42.573Z,4.40
2022-10-20T03:09:09.938Z,4.55
2022-10-20T03:11:37.304Z,5.20
2022-10-20T03:14:04.683Z,4.70
2022-10-20T03:16:32.030Z,4.75
2022-10-20T03:19:03.346Z,4.30
2022-10-20T03:21:33.688Z,4.10
2022-10-20T03:24:01.061Z,4.90
2022-10-20T03:26:28.497Z,4.90
2022-10-20T03:28:55.861Z,4.65
2022-10-20T03:31:23.200Z,4.70
2022-10-20T03:33:50.656Z,4.57
2022-10-20T03:36:17.995Z,5.03
2022-10-20T03:38:45.357Z,4.18
2022-10-20T03:41:12.738Z,4.82
2022-10-20T03:43:40.362Z,4.57
2022-10-20T03:46:10.285Z,4.82
2022-10-20T03:48:38.370Z,5.72
2022-10-20T03:51:05.965Z,5.70
2022-10-20T03:53:33.683Z,5.38
2022-10-20T03:56:06.033Z,5.25
2022-10-20T03:58:33.397Z,5.82
2022-10-20T04:01:00.793Z,6.13
2022-10-20T04:03:28.160Z,5.97
2022-10-20T04:05:55.458Z,5.75
2022-10-20T04:08:22.794Z,5.85
2022-10-20T04:10:50.164Z,6.45
2022-10-20T04:13:17.686Z,6.03
2022-10-20T04:15:45.074Z,5.78
2022-10-20T04:18:12.386Z,5.20
2022-10-20T04:20:43.481Z,6.75
2022-10-20T04:23:11.996Z,5.78
2022-10-20T04:25:45.938Z,6.30
2022-10-20T04:28:13.994Z,5.70
2022-10-20T04:30:41.781Z,6.47
2022-10-20T04:33:09.291Z,6.13
2022-10-20T04:35:36.721Z,6.25
2022-10-20T04:38:04.242Z,6.25
2022-10-20T04:40:31.650Z,6.78
2022-10-20T04:43:02.216Z,6.82
2022-10-20T04:45:29.710Z,6.32
2022-10-20T04:47:57.026Z,5.53
2022-10-20T04:50:24.414Z,6.75
2022-10-20T04:53:07.092Z,7.15
2022-10-20T04:55:34.603Z,6.07
2022-10-20T04:58:01.987Z,6.38
2022-10-20T05:00:30.302Z,6.70
2022-10-20T05:02:57.646Z,6.53
2022-10-20T05:05:24.993Z,6.53
2022-10-20T05:07:52.306Z,5.85
2022-10-20T05:10:20.818Z,6.32
2022-10-20T05:12:48.134Z,6.18
2022-10-20T05:15:15.646Z,6.60
2022-10-20T05:17:42.950Z,7.20
2022-10-20T05:20:10.376Z,6.55
2022-10-20T05:22:38.094Z,6.40
2022-10-20T05:25:31.363Z,8.05
2022-10-20T05:27:53.451Z,6.80
2022-10-20T05:30:20.844Z,7.47
2022-10-20T05:32:48.175Z,7.60
2022-10-20T05:35:15.583Z,6.55
2022-10-20T05:37:42.969Z,7.35
2022-10-20T05:40:11.144Z,6.95
2022-10-20T05:42:38.678Z,7.93
2022-10-20T05:45:06.881Z,7.38
2022-10-20T05:47:34.474Z,7.45
2022-10-20T05:50:02.275Z,7.63
2022-10-20T05:52:29.668Z,7.55
2022-10-20T05:54:57.131Z,7.95
2022-10-20T05:57:24.486Z,7.10
2022-10-20T05:59:51.935Z,7.63
2022-10-20T06:02:19.352Z,7.70
2022-10-20T06:04:46.710Z,7.70
2022-10-20T06:07:14.028Z,8.43
2022-10-20T06:09:41.506Z,8.23
2022-10-20T06:14:41.114Z,7.90
2022-10-20T06:17:08.418Z,7.88
2022-10-20T06:19:35.782Z,8.65
2022-10-20T06:22:05.916Z,7.25
2022-10-20T06:24:34.649Z,8.27
2022-10-20T06:27:02.047Z,8.07
2022-10-20T06:29:29.443Z,7.93
2022-10-20T06:31:56.976Z,7.93
2022-10-20T06:34:25.262Z,7.72
2022-10-20T06:36:52.879Z,7.30
2022-10-20T06:39:24.972Z,8.25
2022-10-20T06:41:54.303Z,6.97
2022-10-20T06:44:22.543Z,7.93
2022-10-20T06:46:52.254Z,7.30
2022-10-20T06:49:20.048Z,8.60
2022-10-20T06:51:47.440Z,7.90
2022-10-20T06:54:14.812Z,8.38
2022-10-20T06:56:42.175Z,8.43
2022-10-20T06:59:09.583Z,8.10
2022-10-20T07:01:38.006Z,7.25
2022-10-20T07:04:10.897Z,8.43
2022-10-20T07:06:40.656Z,7.82
2022-10-20T07:09:08.668Z,8.23
2022-10-20T07:11:36.487Z,8.23
2022-10-20T07:14:03.931Z,8.05
2022-10-20T07:16:32.618Z,8.13
2022-10-20T07:19:00.451Z,7.47
2022-10-20T07:21:32.438Z,6.95
2022-10-20T07:24:04.995Z,7.78
2022-10-20T07:26:34.501Z,7.30
2022-10-20T07:29:03.914Z,6.97
2022-10-20T07:31:31.344Z,6.85
2022-10-20T07:34:06.938Z,6.60
2022-10-20T07:36:45.275Z,7.25
2022-10-20T07:39:14.099Z,6.70
2022-10-20T07:41:45.536Z,7.68
2022-10-20T07:44:12.914Z,7.53
2022-10-20T07:46:40.256Z,7.25
2022-10-20T07:51:54.937Z,7.28
2022-10-20T07:54:22.366Z,6.90
2022-10-20T07:56:49.761Z,7.18
2022-10-20T07:59:17.241Z,6.20
2022-10-20T08:01:44.778Z,6.88
2022-10-20T08:04:12.269Z,6.65
2022-10-20T08:06:39.753Z,6.75
2022-10-20T08:09:07.692Z,6.28
2022-10-20T08:11:35.384Z,6.80
2022-10-20T08:14:02.780Z,7.15
2022-10-20T08:16:37.999Z,6.65
2022-10-20T08:19:14.170Z,6.90
2022-10-20T08:21:41.455Z,7.45
2022-10-20T08:24:09.272Z,6.63
2022-10-20T08:26:36.649Z,6.53
2022-10-20T08:29:04.066Z,7.10
2022-10-20T08:31:31.388Z,6.55
2022-10-20T08:33:59.792Z,6.13
2022-10-20T08:36:28.315Z,6.65
2022-10-20T08:38:56.522Z,6.75
2022-10-20T08:41:34.468Z,6.32
2022-10-20T08:44:03.051Z,6.78
2022-10-20T08:46:35.173Z,6.60
2022-10-20T08:49:05.303Z,6.45
2022-10-20T08:54:02.574Z,6.95
2022-10-20T08:56:31.098Z,6.25
2022-10-20T08:58:58.450Z,6.15
2022-10-20T09:01:30.976Z,6.78
2022-10-20T09:03:59.411Z,6.68
2022-10-20T09:06:26.846Z,6.25
2022-10-20T09:08:55.425Z,5.80
2022-10-20T09:11:24.835Z,5.95
2022-10-20T09:13:53.950Z,5.83
2022-10-20T09:16:40.761Z,6.70
2022-10-20T09:19:21.072Z,5.55
2022-10-20T09:21:52.731Z,7.00
2022-10-20T09:24:22.523Z,7.05
2022-10-20T09:26:59.823Z,5.90
2022-10-20T09:29:38.333Z,6.55
2022-10-20T09:32:45.045Z,6.20
2022-10-20T09:35:22.929Z,6.20
2022-10-20T09:37:56.061Z,6.55
2022-10-20T09:40:24.355Z,6.45
2022-10-20T09:42:58.713Z,6.10
2022-10-20T09:45:28.952Z,7.18
2022-10-20T09:48:17.209Z,6.28
2022-10-20T09:50:50.006Z,6.50
2022-10-20T09:53:40.682Z,6.45
2022-10-20T09:56:08.141Z,6.63
2022-10-20T09:58:37.984Z,5.78
2022-10-20T10:01:06.891Z,6.25
2022-10-20T10:03:44.903Z,6.47
2022-10-20T10:06:30.003Z,6.78
2022-10-20T10:08:58.827Z,6.78
2022-10-20T10:11:44.569Z,6.82
2022-10-20T10:14:23.445Z,5.65
2022-10-20T10:16:50.816Z,6.28
2022-10-20T10:19:22.779Z,6.53
2022-10-20T10:21:54.963Z,5.80
2022-10-20T10:24:48.052Z,6.57
2022-10-20T10:27:23.594Z,6.25
2022-10-20T10:29:50.992Z,6.18
2022-10-20T10:32:28.439Z,6.80
2022-10-20T10:34:58.899Z,5.97
2022-10-20T10:37:27.758Z,6.93
2022-10-20T10:39:57.095Z,6.95
2022-10-20T10:42:24.369Z,6.55
2022-10-20T10:44:57.289Z,6.57
2022-10-20T10:48:06.335Z,6.93
2022-10-20T10:50:52.600Z,6.15
2022-10-20T10:53:44.991Z,5.95
2022-10-20T10:56:44.547Z,6.38
2022-10-20T10:59:19.386Z,6.57
2022-10-20T11:02:05.566Z,6.35
2022-10-20T11:04:56.524Z,6.28
2022-10-20T11:08:02.161Z,6.65
2022-10-20T11:10:53.406Z,6.93
2022-10-20T11:13:37.134Z,6.22
2022-10-20T11:16:41.406Z,6.95
2022-10-20T11:19:11.869Z,5.75
2022-10-20T11:21:53.884Z,5.70
2022-10-20T11:24:39.955Z,5.45
2022-10-20T11:27:20.615Z,5.53
2022-10-20T11:30:19.462Z,7.85
2022-10-20T11:32:53.395Z,7.00
2022-10-20T11:35:36.467Z,8.60
2022-10-20T11:38:13.155Z,5.53
2022-10-20T11:40:41.778Z,5.90
2022-10-20T11:43:19.551Z,6.40
2022-10-20T11:45:50.119Z,5.05
2022-10-20T11:48:26.721Z,5.30
2022-10-20T11:51:31.820Z,5.30
2022-10-20T11:54:23.203Z,5.13
2022-10-20T11:57:04.860Z,4.88
2022-10-20T12:00:07.544Z,5.25
2022-10-20T12:02:40.734Z,5.57
2022-10-20T12:05:26.210Z,5.80
2022-10-20T12:08:24.754Z,4.82
2022-10-20T12:11:26.768Z,4.72
2022-10-20T12:14:14.818Z,4.22
2022-10-20T12:16:54.044Z,5.07
2022-10-20T12:19:21.407Z,5.35
2022-10-20T12:22:00.792Z,5.70
2022-10-20T12:24:54.476Z,5.43
2022-10-20T12:27:23.809Z,5.57
2022-10-20T12:29:58.219Z,5.70
2022-10-20T12:32:26.483Z,5.35
2022-10-20T12:34:53.823Z,5.45
2022-10-20T12:37:30.071Z,5.18
2022-10-20T12:40:25.548Z,5.30
2022-10-20T12:42:55.418Z,4.80
2022-10-20T12:45:40.333Z,4.68
2022-10-20T12:48:09.827Z,5.20
2022-10-20T12:50:49.425Z,4.73
2022-10-20T12:53:16.752Z,5.80
2022-10-20T12:55:45.703Z,5.03
2022-10-20T12:58:18.374Z,4.70
2022-10-20T13:00:51.715Z,4.45
2022-10-20T13:03:38.933Z,4.63
2022-10-20T13:06:26.253Z,4.85
2022-10-20T13:09:10.669Z,4.88
2022-10-20T13:11:38.279Z,4.80
2022-10-20T13:14:16.646Z,4.72
2022-10-20T13:17:17.748Z,4.57
2022-10-20T13:20:01.424Z,5.53
2022-10-20T13:22:33.482Z,4.07
2022-10-20T13:25:01.392Z,4.78
2022-10-20T13:27:29.010Z,4.35
2022-10-20T13:29:56.418Z,4.03
2022-10-20T13:32:37.909Z,3.90
2022-10-20T13:35:36.492Z,3.97
2022-10-20T13:38:12.423Z,3.75
2022-10-20T13:40:57.695Z,4.72
2022-10-20T13:43:25.036Z,3.90
2022-10-20T13:46:11.532Z,4.05
2022-10-20T13:49:07.689Z,3.90
2022-10-20T13:51:40.656Z,4.75
2022-10-20T13:54:08.213Z,3.47
2022-10-20T13:56:36.779Z,3.50
2022-10-20T14:01:55.345Z,3.75
2022-10-20T14:04:25.886Z,3.50
2022-10-20T14:06:53.631Z,4.53
2022-10-20T14:09:24.857Z,4.47
2022-10-20T14:11:56.000Z,4.40
2022-10-20T14:14:26.152Z,4.60
2022-10-20T14:16:53.517Z,5.32
2022-10-20T14:19:27.725Z,5.68
2022-10-20T14:22:19.491Z,4.35
2022-10-20T14:24:48.439Z,4.50
2022-10-20T14:27:22.700Z,4.97
2022-10-20T14:29:51.762Z,4.82
2022-10-20T14:32:21.849Z,4.88
2022-10-20T14:35:02.761Z,5.65
2022-10-20T14:37:41.379Z,4.85
2022-10-20T14:40:18.639Z,4.50
2022-10-20T14:42:46.540Z,4.78
2022-10-20T14:45:25.472Z,4.13
2022-10-20T14:47:53.133Z,4.82
2022-10-20T14:50:30.907Z,4.28
2022-10-20T14:52:58.238Z,4.72
2022-10-20T14:55:35.419Z,4.47
2022-10-20T14:58:03.112Z,4.50
2022-10-20T15:00:34.441Z,4.80
2022-10-20T15:03:06.608Z,5.00
2022-10-20T15:05:34.023Z,4.82
2022-10-20T15:08:20.949Z,4.85
2022-10-20T15:10:48.501Z,5.20
2022-10-20T15:13:26.469Z,4.07
2022-10-20T15:15:55.685Z,4.60
2022-10-20T15:18:24.839Z,4.57
2022-10-20T15:20:53.232Z,4.07
2022-10-20T15:23:25.228Z,4.57
2022-10-20T15:25:52.586Z,3.75
2022-10-20T15:28:38.076Z,4.38
2022-10-20T15:31:07.906Z,4.60
2022-10-20T15:33:35.353Z,4.18
2022-10-20T15:36:02.802Z,4.22
2022-10-20T15:38:30.264Z,3.95
2022-10-20T15:43:33.205Z,4.95
2022-10-20T15:46:00.578Z,4.05
2022-10-20T15:48:28.945Z,4.95
2022-10-20T15:50:57.969Z,4.80
2022-10-20T15:53:25.435Z,4.35
2022-10-20T15:55:52.787Z,4.50
2022-10-20T15:58:20.408Z,5.18
2022-10-20T16:00:47.790Z,4.38
2022-10-20T16:03:19.223Z,4.57
2022-10-20T16:05:49.649Z,4.20
2022-10-20T16:08:16.999Z,4.60
2022-10-20T16:10:44.354Z,4.18
2022-10-20T16:13:12.230Z,5.03
2022-10-20T16:15:39.660Z,5.35
2022-10-20T16:18:09.647Z,5.40
2022-10-20T16:20:37.503Z,5.45
2022-10-20T16:23:04.889Z,5.45
2022-10-20T16:25:32.237Z,5.65
2022-10-20T16:27:59.541Z,5.30
2022-10-20T16:30:27.023Z,5.35
2022-10-20T16:32:54.404Z,4.90
2022-10-20T16:35:22.625Z,5.60
2022-10-20T16:37:49.975Z,5.20
2022-10-20T16:40:17.324Z,5.22
2022-10-20T16:42:44.674Z,5.30
2022-10-20T16:45:12.098Z,4.85
2022-10-20T16:47:40.055Z,5.28
2022-10-20T16:50:07.786Z,6.07
2022-10-20T16:52:35.149Z,6.68
2022-10-20T16:55:02.576Z,5.22
2022-10-20T16:57:33.594Z,6.28
2022-10-20T17:00:01.042Z,5.65
2022-10-20T17:02:28.413Z,5.57
2022-10-20T17:04:55.753Z,5.15
2022-10-20T17:07:23.089Z,5.90
2022-10-20T17:09:50.407Z,5.88
2022-10-20T17:12:18.439Z,6.55
2022-10-20T17:14:45.872Z,5.97
2022-10-20T17:17:13.266Z,6.10
2022-10-20T17:19:43.442Z,6.03
2022-10-20T17:24:42.742Z,6.05
2022-10-20T17:27:10.149Z,6.03
2022-10-20T17:29:37.550Z,6.10
2022-10-20T17:32:05.021Z,6.05
2022-10-20T17:34:32.366Z,6.20
2022-10-20T17:36:59.833Z,7.13
2022-10-20T17:39:28.467Z,6.18
2022-10-20T17:41:55.841Z,7.03
2022-10-20T17:44:23.170Z,7.25
2022-10-20T17:46:50.535Z,6.93
2022-10-20T17:49:18.064Z,8.35
2022-10-20T17:51:45.412Z,7.20
2022-10-20T17:54:12.739Z,7.47
2022-10-20T17:56:40.260Z,7.22
2022-10-20T17:59:08.835Z,7.55
2022-10-20T18:01:37.474Z,7.47
2022-10-20T18:04:15.488Z,8.52
2022-10-20T18:06:44.220Z,10.38
2022-10-20T18:09:13.892Z,8.50
2022-10-20T18:11:43.423Z,7.88
2022-10-20T18:14:10.781Z,7.07
2022-10-20T18:16:39.572Z,7.28
2022-10-20T18:19:07.363Z,7.22
2022-10-20T18:21:34.923Z,7.60
2022-10-20T18:24:08.157Z,7.63
2022-10-20T18:26:36.754Z,6.70
2022-10-20T18:29:05.851Z,6.28
2022-10-20T18:31:34.717Z,6.78
2022-10-20T18:34:06.903Z,7.47
2022-10-20T18:36:36.903Z,6.80
2022-10-20T18:39:07.465Z,6.97
2022-10-20T18:41:38.070Z,7.95
2022-10-20T18:44:08.196Z,7.03
2022-10-20T18:49:03.988Z,8.43
2022-10-20T18:51:32.151Z,7.63
2022-10-20T18:54:00.279Z,7.20
2022-10-20T18:56:29.516Z,7.28
2022-10-20T18:59:08.266Z,7.43
2022-10-20T19:01:37.175Z,8.43
2022-10-20T19:04:04.954Z,7.88
2022-10-20T19:06:43.821Z,6.97
2022-10-20T19:09:14.406Z,7.25
2022-10-20T19:11:42.487Z,8.40
2022-10-20T19:14:11.462Z,7.07
2022-10-20T19:16:39.659Z,7.35
2022-10-20T19:19:08.272Z,7.68
2022-10-20T19:21:36.173Z,7.63
2022-10-20T19:24:05.373Z,7.75
2022-10-20T19:26:41.295Z,6.93
2022-10-20T19:29:11.410Z,8.38
2022-10-20T19:31:41.490Z,7.78
2022-10-20T19:34:11.557Z,7.88
2022-10-20T19:36:40.247Z,7.47
2022-10-20T19:39:09.189Z,7.80
2022-10-20T19:41:36.624Z,8.07
2022-10-20T19:44:04.800Z,8.25
2022-10-20T19:46:32.477Z,9.43
2022-10-20T19:48:59.991Z,8.52
2022-10-20T19:51:27.498Z,7.55
2022-10-20T19:53:54.809Z,8.73
2022-10-20T19:56:22.197Z,8.57
2022-10-20T19:58:49.785Z,8.57
2022-10-20T20:01:17.718Z,8.50
2022-10-20T20:03:45.226Z,8.35
2022-10-20T20:06:16.485Z,8.00
2022-10-20T20:08:45.137Z,8.93
2022-10-20T20:11:22.844Z,8.32
2022-10-20T20:13:51.835Z,8.85
2022-10-20T20:16:19.326Z,8.50
2022-10-20T20:18:46.743Z,8.95
2022-10-20T20:21:14.244Z,8.48
2022-10-20T20:23:58.409Z,9.18
2022-10-20T20:26:27.176Z,8.73
2022-10-20T20:28:55.477Z,8.57
2022-10-20T20:31:23.705Z,8.77
2022-10-20T20:33:51.099Z,8.15
2022-10-20T20:36:18.463Z,8.90
2022-10-20T20:38:45.959Z,7.72
2022-10-20T20:41:15.001Z,9.13
2022-10-20T20:43:45.100Z,8.60
2022-10-20T20:46:13.535Z,8.20
2022-10-20T20:48:40.903Z,8.90
2022-10-20T20:51:08.298Z,9.43
2022-10-20T20:53:36.459Z,8.45
2022-10-20T20:56:10.236Z,8.70
2022-10-20T20:58:37.632Z,8.70
2022-10-20T21:01:20.191Z,9.10
2022-10-20T21:03:54.311Z,9.10
2022-10-20T21:06:25.721Z,9.43
2022-10-20T21:09:01.055Z,8.15
2022-10-20T21:11:28.481Z,9.00
2022-10-20T21:13:56.604Z,9.65
2022-10-20T21:16:28.167Z,8.52
2022-10-20T21:18:57.101Z,9.68
2022-10-20T21:21:35.573Z,9.95
2022-10-20T21:24:03.743Z,9.23
2022-10-20T21:26:31.380Z,9.23
2022-10-20T21:28:58.946Z,8.13
2022-10-20T21:31:27.414Z,9.35
2022-10-20T21:33:59.862Z,8.98
2022-10-20T21:36:28.334Z,10.88
2022-10-20T21:38:55.626Z,9.48
2022-10-20T21:41:24.027Z,8.55
2022-10-20T21:43:53.925Z,8.43
2022-10-20T21:46:28.839Z,9.25
2022-10-20T21:48:58.587Z,8.93
2022-10-20T21:51:28.578Z,8.65
2022-10-20T21:53:59.894Z,8.30
2022-10-20T21:56:27.637Z,8.50
2022-10-20T21:58:55.312Z,8.60
2022-10-20T22:01:23.600Z,8.57
2022-10-20T22:03:51.535Z,8.32
2022-10-20T22:06:20.778Z,9.70
2022-10-20T22:08:50.100Z,8.55
2022-10-20T22:11:20.462Z,8.30
2022-10-20T22:16:18.314Z,8.32
2022-10-20T22:18:45.707Z,8.20
2022-10-20T22:21:18.370Z,8.98
2022-10-20T22:23:45.801Z,8.40
2022-10-20T22:26:13.324Z,8.38
2022-10-20T22:28:41.063Z,8.57
2022-10-20T22:31:08.618Z,8.55
2022-10-20T22:33:36.191Z,8.65
2022-10-20T22:36:04.540Z,8.93
2022-10-20T22:38:31.947Z,8.13
2022-10-20T22:41:00.290Z,8.38
2022-10-20T22:43:28.093Z,8.93
2022-10-20T22:45:55.441Z,9.18
2022-10-20T22:48:23.012Z,7.72
2022-10-20T22:50:50.654Z,8.40
2022-10-20T22:53:18.047Z,8.00
2022-10-20T22:55:45.524Z,8.77
2022-10-20T22:58:12.842Z,8.32
2022-10-20T23:00:40.490Z,9.52
2022-10-20T23:03:08.019Z,8.43
2022-10-20T23:05:35.392Z,9.27
2022-10-20T23:08:02.735Z,8.73
2022-10-20T23:10:31.598Z,9.45
2022-10-20T23:12:58.930Z,7.75
2022-10-20T23:15:27.387Z,8.10
2022-10-20T23:17:54.742Z,8.35
2022-10-20T23:20:22.275Z,8.68
2022-10-20T23:22:49.789Z,8.13
2022-10-20T23:25:17.132Z,8.00
2022-10-20T23:27:44.447Z,8.15
2022-10-20T23:30:11.883Z,8.40
2022-10-20T23:32:39.247Z,8.25
2022-10-20T23:35:07.276Z,7.68
2022-10-20T23:37:36.861Z,8.75
2022-10-20T23:40:04.575Z,8.07
2022-10-20T23:42:31.951Z,7.72
2022-10-20T23:44:59.253Z,8.10
2022-10-20T23:47:26.585Z,8.02
2022-10-20T23:49:53.932Z,8.93
2022-10-20T23:52:21.301Z,8.40
2022-10-20T23:54:48.595Z,7.68
2022-10-20T23:57:15.941Z,8.43
2022-10-20T23:59:43.225Z,8.63
